This is the latest recevied weather packets stored in our database for station/object DM0MR. If no packets are shown the sender has not sent any weather packets the latest 10 day(s).
| Time | Temp. | Humidity | Pressure | Rain* | Wind** | Luminosity | Snow |
|---|---|---|---|---|---|---|---|
| 1777237884 | 5.56° C | 74% | 1014.4 hPa | 0 mm | - | - | - |
| 1777236982 | 6.11° C | 72% | 1014.5 hPa | 0 mm | - | - | - |
| 1777235183 | 7.22° C | 64% | 1014.4 hPa | 0 mm | - | - | - |
| 1777234286 | 8.33° C | 65% | 1014.2 hPa | 0 mm | - | - | - |
| 1777233382 | 7.22° C | 65% | 1014.2 hPa | 0 mm | - | - | - |
| 1777232482 | 8.89° C | 61% | 1014.2 hPa | 0 mm | - | - | - |
| 1777231584 | 10° C | 54% | 1014.3 hPa | 0 mm | - | - | - |
| 1777230682 | 10.56° C | 54% | 1014.1 hPa | 0 mm | - | - | - |
| 1777229783 | 10.56° C | 56% | 1014.1 hPa | 0 mm | - | - | - |
| 1777228882 | 9.44° C | 66% | 1013.9 hPa | 0 mm | - | - | - |
| 1777227983 | 10° C | 65% | 1014 hPa | 0 mm | - | - | - |
| 1777227083 | 11.11° C | 63% | 1013.9 hPa | 0 mm | - | - | - |
| 1777226183 | 11.67° C | 59% | 1013.7 hPa | 0 mm | - | - | - |
| 1777225283 | 11.67° C | 57% | 1013.6 hPa | 0 mm | - | - | - |
| 1777224382 | 12.22° C | 51% | 1013.6 hPa | 0 mm | - | - | - |
| 1777222584 | 13.33° C | 44% | 1013.6 hPa | 0 mm | - | - | - |
| 1777221683 | 13.89° C | 45% | 1013.7 hPa | 0 mm | - | - | - |
| 1777220782 | 13.89° C | 44% | 1013.8 hPa | 0 mm | - | - | - |
| 1777219882 | 14.44° C | 43% | 1014 hPa | 0 mm | - | - | - |
| 1777218982 | 14.44° C | 43% | 1014 hPa | 0 mm | - | - | - |
| 1777218083 | 13.89° C | 45% | 1014 hPa | 0 mm | - | - | - |
| 1777217184 | 13.89° C | 44% | 1014 hPa | 0 mm | - | - | - |
| 1777216282 | 14.44° C | 44% | 1014.1 hPa | 0 mm | - | - | - |
| 1777215383 | 14.44° C | 44% | 1014.2 hPa | 0 mm | - | - | - |
| 1777214483 | 15.56° C | 39% | 1014.3 hPa | 0 mm | - | - | - |
* Rain latest hour (hover to see other rain measurements)
** Current wind speed in m/s (hover to see current wind gust speed)